sensor_id;sensor_type;location;lat;lon;timestamp;pressure;altitude;pressure_sealevel;temperature;humidity
53011;BME280;42803;55.762;38.084;2023-03-07T00:00:22;98235.50;;;-6.34;100.00
53011;BME280;42803;55.762;38.084;2023-03-07T00:02:51;98232.22;;;-6.33;100.00
53011;BME280;42803;55.762;38.084;2023-03-07T00:05:21;98238.94;;;-6.34;100.00
53011;BME280;42803;55.762;38.084;2023-03-07T00:07:50;98229.13;;;-6.38;100.00
53011;BME280;42803;55.762;38.084;2023-03-07T00:10:19;98229.34;;;-6.36;100.00
53011;BME280;42803;55.762;38.084;2023-03-07T00:12:48;98227.50;;;-6.38;100.00
53011;BME280;42803;55.762;38.084;2023-03-07T00:15:17;98229.34;;;-6.36;100.00
53011;BME280;42803;55.762;38.084;2023-03-07T00:17:47;98231.69;;;-6.38;100.00
53011;BME280;42803;55.762;38.084;2023-03-07T00:20:16;98230.03;;;-6.38;100.00
53011;BME280;42803;55.762;38.084;2023-03-07T00:22:46;98224.78;;;-6.39;100.00
53011;BME280;42803;55.762;38.084;2023-03-07T00:25:15;98230.59;;;-6.40;100.00
53011;BME280;42803;55.762;38.084;2023-03-07T00:27:44;98226.22;;;-6.41;100.00
53011;BME280;42803;55.762;38.084;2023-03-07T00:30:13;98226.59;;;-6.45;100.00
53011;BME280;42803;55.762;38.084;2023-03-07T00:32:42;98225.50;;;-6.47;100.00
53011;BME280;42803;55.762;38.084;2023-03-07T00:35:11;98227.66;;;-6.50;100.00
53011;BME280;42803;55.762;38.084;2023-03-07T00:37:40;98221.53;;;-6.52;100.00
53011;BME280;42803;55.762;38.084;2023-03-07T00:40:11;98232.19;;;-6.55;100.00
53011;BME280;42803;55.762;38.084;2023-03-07T00:42:42;98231.28;;;-6.55;100.00
53011;BME280;42803;55.762;38.084;2023-03-07T00:45:11;98231.81;;;-6.58;100.00
53011;BME280;42803;55.762;38.084;2023-03-07T00:47:40;98223.28;;;-6.66;100.00
53011;BME280;42803;55.762;38.084;2023-03-07T00:50:09;98228.69;;;-6.77;100.00
53011;BME280;42803;55.762;38.084;2023-03-07T00:52:38;98234.81;;;-6.89;100.00
53011;BME280;42803;55.762;38.084;2023-03-07T00:55:08;98228.59;;;-6.98;100.00
53011;BME280;42803;55.762;38.084;2023-03-07T00:57:40;98234.91;;;-7.09;100.00
53011;BME280;42803;55.762;38.084;2023-03-07T01:00:10;98232.31;;;-7.16;100.00
53011;BME280;42803;55.762;38.084;2023-03-07T01:02:40;98226.31;;;-7.24;100.00
53011;BME280;42803;55.762;38.084;2023-03-07T01:05:09;98229.16;;;-7.35;100.00
53011;BME280;42803;55.762;38.084;2023-03-07T01:07:38;98224.19;;;-7.41;100.00
53011;BME280;42803;55.762;38.084;2023-03-07T01:10:08;98228.31;;;-7.48;100.00
53011;BME280;42803;55.762;38.084;2023-03-07T01:12:37;98225.75;;;-7.55;100.00
53011;BME280;42803;55.762;38.084;2023-03-07T01:15:08;98239.47;;;-7.61;100.00
53011;BME280;42803;55.762;38.084;2023-03-07T01:17:38;98234.75;;;-7.65;100.00
53011;BME280;42803;55.762;38.084;2023-03-07T01:20:08;98232.22;;;-7.65;100.00
53011;BME280;42803;55.762;38.084;2023-03-07T01:22:37;98230.19;;;-7.67;100.00
53011;BME280;42803;55.762;38.084;2023-03-07T01:25:07;98230.72;;;-7.70;100.00
53011;BME280;42803;55.762;38.084;2023-03-07T01:27:36;98226.38;;;-7.71;100.00
53011;BME280;42803;55.762;38.084;2023-03-07T01:30:08;98228.91;;;-7.71;100.00
53011;BME280;42803;55.762;38.084;2023-03-07T01:32:38;98230.84;;;-7.75;100.00
53011;BME280;42803;55.762;38.084;2023-03-07T01:35:08;98232.09;;;-7.79;100.00
53011;BME280;42803;55.762;38.084;2023-03-07T01:37:37;98236.03;;;-7.88;100.00
53011;BME280;42803;55.762;38.084;2023-03-07T01:40:09;98235.63;;;-7.91;100.00
53011;BME280;42803;55.762;38.084;2023-03-07T01:42:38;98236.03;;;-7.88;100.00
53011;BME280;42803;55.762;38.084;2023-03-07T01:48:11;98231.91;;;-7.80;100.00
53011;BME280;42803;55.762;38.084;2023-03-07T01:50:41;98235.69;;;-7.84;100.00
53011;BME280;42803;55.762;38.084;2023-03-07T01:53:10;98235.69;;;-7.84;100.00
53011;BME280;42803;55.762;38.084;2023-03-07T01:55:39;98238.72;;;-7.87;100.00
53011;BME280;42803;55.762;38.084;2023-03-07T01:58:14;98240.34;;;-7.87;100.00
53011;BME280;42803;55.762;38.084;2023-03-07T02:00:44;98243.78;;;-7.87;100.00
53011;BME280;42803;55.762;38.084;2023-03-07T02:03:20;98238.16;;;-7.91;100.00
53011;BME280;42803;55.762;38.084;2023-03-07T02:05:52;98238.09;;;-7.98;100.00
53011;BME280;42803;55.762;38.084;2023-03-07T02:08:25;98241.16;;;-8.01;100.00
53011;BME280;42803;55.762;38.084;2023-03-07T02:10:55;98234.81;;;-8.04;100.00
53011;BME280;42803;55.762;38.084;2023-03-07T02:13:24;98247.00;;;-8.15;100.00
53011;BME280;42803;55.762;38.084;2023-03-07T02:15:54;98238.44;;;-8.22;100.00
53011;BME280;42803;55.762;38.084;2023-03-07T02:18:27;98240.56;;;-8.25;100.00
53011;BME280;42803;55.762;38.084;2023-03-07T02:21:05;98243.94;;;-8.32;100.00
53011;BME280;42803;55.762;38.084;2023-03-07T02:23:43;98245.16;;;-8.36;100.00
53011;BME280;42803;55.762;38.084;2023-03-07T02:26:19;98238.47;;;-8.42;100.00
53011;BME280;42803;55.762;38.084;2023-03-07T02:28:52;98233.41;;;-8.42;100.00
53011;BME280;42803;55.762;38.084;2023-03-07T02:31:22;98238.28;;;-8.37;100.00
53011;BME280;42803;55.762;38.084;2023-03-07T02:33:51;98234.94;;;-8.30;100.00
53011;BME280;42803;55.762;38.084;2023-03-07T02:36:23;98232.88;;;-8.20;100.00
53011;BME280;42803;55.762;38.084;2023-03-07T02:39:03;98238.75;;;-8.06;100.00
53011;BME280;42803;55.762;38.084;2023-03-07T02:41:34;98241.03;;;-7.95;100.00
53011;BME280;42803;55.762;38.084;2023-03-07T02:44:15;98241.66;;;-7.83;100.00
53011;BME280;42803;55.762;38.084;2023-03-07T02:46:44;98240.09;;;-7.76;100.00
53011;BME280;42803;55.762;38.084;2023-03-07T02:49:14;98230.19;;;-7.67;100.00
53011;BME280;42803;55.762;38.084;2023-03-07T02:51:44;98239.69;;;-7.59;100.00
53011;BME280;42803;55.762;38.084;2023-03-07T02:54:13;98233.03;;;-7.51;100.00
53011;BME280;42803;55.762;38.084;2023-03-07T02:56:42;98233.06;;;-7.44;100.00
53011;BME280;42803;55.762;38.084;2023-03-07T02:59:11;98228.03;;;-7.37;100.00
53011;BME280;42803;55.762;38.084;2023-03-07T03:01:42;98230.22;;;-7.33;100.00
53011;BME280;42803;55.762;38.084;2023-03-07T03:04:11;98224.81;;;-7.29;100.00
53011;BME280;42803;55.762;38.084;2023-03-07T03:06:42;98230.47;;;-7.24;100.00
53011;BME280;42803;55.762;38.084;2023-03-07T03:09:11;98232.47;;;-7.22;100.00
53011;BME280;42803;55.762;38.084;2023-03-07T03:11:40;98229.22;;;-7.21;100.00
53011;BME280;42803;55.762;38.084;2023-03-07T03:14:09;98222.88;;;-7.24;100.00
53011;BME280;42803;55.762;38.084;2023-03-07T03:16:38;98226.31;;;-7.24;100.00
53011;BME280;42803;55.762;38.084;2023-03-07T03:19:09;98225.97;;;-7.20;100.00
53011;BME280;42803;55.762;38.084;2023-03-07T03:21:38;98226.00;;;-7.13;100.00
53011;BME280;42803;55.762;38.084;2023-03-07T03:24:08;98227.47;;;-7.07;100.00
53011;BME280;42803;55.762;38.084;2023-03-07T03:26:38;98220.25;;;-7.04;100.00
53011;BME280;42803;55.762;38.084;2023-03-07T03:29:07;98230.38;;;-7.04;100.00
53011;BME280;42803;55.762;38.084;2023-03-07T03:31:37;98229.63;;;-7.11;100.00
53011;BME280;42803;55.762;38.084;2023-03-07T03:34:06;98224.50;;;-7.18;100.00
53011;BME280;42803;55.762;38.084;2023-03-07T03:36:37;98231.03;;;-7.20;100.00
53011;BME280;42803;55.762;38.084;2023-03-07T03:39:09;98241.53;;;-7.24;100.00
53011;BME280;42803;55.762;38.084;2023-03-07T03:41:44;98234.25;;;-7.28;100.00
53011;BME280;42803;55.762;38.084;2023-03-07T03:44:15;98234.25;;;-7.28;100.00
53011;BME280;42803;55.762;38.084;2023-03-07T03:46:44;98236.97;;;-7.26;100.00
53011;BME280;42803;55.762;38.084;2023-03-07T03:49:17;98248.00;;;-7.26;100.00
53011;BME280;42803;55.762;38.084;2023-03-07T03:51:51;98240.22;;;-7.27;100.00
53011;BME280;42803;55.762;38.084;2023-03-07T03:54:20;98242.56;;;-7.29;100.00
53011;BME280;42803;55.762;38.084;2023-03-07T03:56:49;98250.38;;;-7.27;100.00
53011;BME280;42803;55.762;38.084;2023-03-07T03:59:18;98246.53;;;-7.31;100.00
53011;BME280;42803;55.762;38.084;2023-03-07T04:01:49;98242.91;;;-7.33;100.00
53011;BME280;42803;55.762;38.084;2023-03-07T04:04:19;98252.84;;;-7.34;100.00
53011;BME280;42803;55.762;38.084;2023-03-07T04:06:48;98256.28;;;-7.34;100.00
53011;BME280;42803;55.762;38.084;2023-03-07T04:09:18;98254.16;;;-7.31;100.00
53011;BME280;42803;55.762;38.084;2023-03-07T04:11:47;98250.19;;;-7.22;100.00
53011;BME280;42803;55.762;38.084;2023-03-07T04:14:17;98251.75;;;-7.09;100.00
53011;BME280;42803;55.762;38.084;2023-03-07T04:16:46;98246.16;;;-7.00;100.00
53011;BME280;42803;55.762;38.084;2023-03-07T04:19:15;98246.03;;;-6.87;100.00
53011;BME280;42803;55.762;38.084;2023-03-07T04:21:44;98243.50;;;-6.80;100.00
53011;BME280;42803;55.762;38.084;2023-03-07T04:24:15;98252.97;;;-6.72;100.00
53011;BME280;42803;55.762;38.084;2023-03-07T04:26:46;98243.97;;;-6.63;100.00
53011;BME280;42803;55.762;38.084;2023-03-07T04:29:15;98243.97;;;-6.55;100.00
53011;BME280;42803;55.762;38.084;2023-03-07T04:31:53;98248.88;;;-6.50;100.00
53011;BME280;42803;55.762;38.084;2023-03-07T04:34:22;98254.69;;;-6.51;100.00
53011;BME280;42803;55.762;38.084;2023-03-07T04:36:51;98244.69;;;-6.49;100.00
53011;BME280;42803;55.762;38.084;2023-03-07T04:39:21;98251.78;;;-6.47;100.00
53011;BME280;42803;55.762;38.084;2023-03-07T04:41:52;98258.72;;;-6.31;100.00
53011;BME280;42803;55.762;38.084;2023-03-07T04:44:22;98251.16;;;-6.10;100.00
53011;BME280;42803;55.762;38.084;2023-03-07T04:46:52;98258.22;;;-5.93;100.00
53011;BME280;42803;55.762;38.084;2023-03-07T04:49:23;98262.94;;;-5.75;100.00
53011;BME280;42803;55.762;38.084;2023-03-07T04:51:52;98256.75;;;-5.55;100.00
53011;BME280;42803;55.762;38.084;2023-03-07T04:54:21;98259.81;;;-5.44;100.00
53011;BME280;42803;55.762;38.084;2023-03-07T04:56:52;98258.34;;;-5.34;100.00
53011;BME280;42803;55.762;38.084;2023-03-07T04:59:21;98267.22;;;-5.24;100.00
53011;BME280;42803;55.762;38.084;2023-03-07T05:01:50;98270.28;;;-5.19;100.00
53011;BME280;42803;55.762;38.084;2023-03-07T05:04:19;98263.41;;;-5.20;100.00
53011;BME280;42803;55.762;38.084;2023-03-07T05:06:48;98266.53;;;-5.23;100.00
53011;BME280;42803;55.762;38.084;2023-03-07T05:09:17;98273.56;;;-5.20;100.00
53011;BME280;42803;55.762;38.084;2023-03-07T05:11:46;98279.25;;;-5.23;100.00
53011;BME280;42803;55.762;38.084;2023-03-07T05:14:17;98279.75;;;-5.11;100.00
53011;BME280;42803;55.762;38.084;2023-03-07T05:16:46;98277.16;;;-5.04;100.00
53011;BME280;42803;55.762;38.084;2023-03-07T05:19:15;98283.72;;;-4.92;100.00
53011;BME280;42803;55.762;38.084;2023-03-07T05:21:45;98278.41;;;-4.86;100.00
53011;BME280;42803;55.762;38.084;2023-03-07T05:24:16;98283.31;;;-4.80;100.00
53011;BME280;42803;55.762;38.084;2023-03-07T05:26:45;98287.06;;;-4.70;100.00
53011;BME280;42803;55.762;38.084;2023-03-07T05:29:14;98288.88;;;-4.61;100.00
53011;BME280;42803;55.762;38.084;2023-03-07T05:31:44;98288.78;;;-4.47;100.00
53011;BME280;42803;55.762;38.084;2023-03-07T05:34:14;98278.97;;;-4.44;100.00
53011;BME280;42803;55.762;38.084;2023-03-07T05:36:43;98289.19;;;-4.51;100.00
53011;BME280;42803;55.762;38.084;2023-03-07T05:39:12;98288.59;;;-4.42;100.00
53011;BME280;42803;55.762;38.084;2023-03-07T05:41:43;98285.63;;;-4.30;100.00
53011;BME280;42803;55.762;38.084;2023-03-07T05:44:12;98291.75;;;-4.21;99.51
53011;BME280;42803;55.762;38.084;2023-03-07T05:46:42;98295.16;;;-4.06;98.52
53011;BME280;42803;55.762;38.084;2023-03-07T05:49:12;98291.47;;;-4.01;97.58
53011;BME280;42803;55.762;38.084;2023-03-07T05:51:41;98299.84;;;-4.02;99.15
53011;BME280;42803;55.762;38.084;2023-03-07T05:54:10;98298.19;;;-4.02;99.62
53011;BME280;42803;55.762;38.084;2023-03-07T05:56:39;98304.75;;;-3.97;100.00
53011;BME280;42803;55.762;38.084;2023-03-07T05:59:08;98297.19;;;-3.81;98.86
53011;BME280;42803;55.762;38.084;2023-03-07T06:01:44;98299.31;;;-3.77;98.16
53011;BME280;42803;55.762;38.084;2023-03-07T06:04:15;98299.44;;;-3.68;98.33
53011;BME280;42803;55.762;38.084;2023-03-07T06:06:44;98294.28;;;-3.61;98.25
53011;BME280;42803;55.762;38.084;2023-03-07T06:09:13;98297.28;;;-3.49;97.81
53011;BME280;42803;55.762;38.084;2023-03-07T06:11:42;98287.44;;;-3.46;97.19
53011;BME280;42803;55.762;38.084;2023-03-07T06:14:11;98292.88;;;-3.43;96.69
53011;BME280;42803;55.762;38.084;2023-03-07T06:16:40;98290.94;;;-3.30;97.46
53011;BME280;42803;55.762;38.084;2023-03-07T06:19:10;98297.97;;;-3.20;96.41
53011;BME280;42803;55.762;38.084;2023-03-07T06:21:41;98296.09;;;-2.98;96.97
53011;BME280;42803;55.762;38.084;2023-03-07T06:24:10;98300.06;;;-2.93;96.54
53011;BME280;42803;55.762;38.084;2023-03-07T06:26:39;98300.22;;;-2.91;93.82
53011;BME280;42803;55.762;38.084;2023-03-07T06:29:08;98291.50;;;-2.93;92.11
53011;BME280;42803;55.762;38.084;2023-03-07T06:31:38;98303.34;;;-2.94;94.26
53011;BME280;42803;55.762;38.084;2023-03-07T06:34:07;98305.75;;;-2.80;96.05
53011;BME280;42803;55.762;38.084;2023-03-07T06:36:36;98300.22;;;-2.76;92.90
53011;BME280;42803;55.762;38.084;2023-03-07T06:39:09;98303.13;;;-2.73;94.72
53011;BME280;42803;55.762;38.084;2023-03-07T06:41:38;98300.75;;;-2.55;93.80
53011;BME280;42803;55.762;38.084;2023-03-07T06:44:07;98309.13;;;-2.25;94.60
53011;BME280;42803;55.762;38.084;2023-03-07T06:46:37;98305.28;;;-1.72;92.94
53011;BME280;42803;55.762;38.084;2023-03-07T06:49:12;98306.69;;;-1.34;89.99
53011;BME280;42803;55.762;38.084;2023-03-07T06:51:42;98291.16;;;-1.02;87.52
53011;BME280;42803;55.762;38.084;2023-03-07T06:54:13;98289.69;;;-0.91;84.74
53011;BME280;42803;55.762;38.084;2023-03-07T06:56:42;98291.16;;;-1.02;85.26
53011;BME280;42803;55.762;38.084;2023-03-07T06:59:16;98290.66;;;-1.15;85.99
53011;BME280;42803;55.762;38.084;2023-03-07T07:01:46;98295.06;;;-1.39;84.70
53011;BME280;42803;55.762;38.084;2023-03-07T07:04:18;98303.75;;;-1.21;82.67
53011;BME280;42803;55.762;38.084;2023-03-07T07:06:48;98298.22;;;-1.08;84.54
53011;BME280;42803;55.762;38.084;2023-03-07T07:09:19;98302.53;;;-1.25;86.25
53011;BME280;42803;55.762;38.084;2023-03-07T07:11:48;98314.38;;;-1.34;88.53
53011;BME280;42803;55.762;38.084;2023-03-07T07:14:17;98315.72;;;-1.62;89.30
53011;BME280;42803;55.762;38.084;2023-03-07T07:16:46;98312.59;;;-1.59;87.96
53011;BME280;42803;55.762;38.084;2023-03-07T07:19:15;98325.13;;;-1.78;88.00
53011;BME280;42803;55.762;38.084;2023-03-07T07:21:46;98330.09;;;-1.96;90.20
53011;BME280;42803;55.762;38.084;2023-03-07T07:24:15;98326.81;;;-2.10;90.99
53011;BME280;42803;55.762;38.084;2023-03-07T07:26:45;98338.63;;;-2.19;90.93
53011;BME280;42803;55.762;38.084;2023-03-07T07:29:14;98333.25;;;-2.14;89.50
53011;BME280;42803;55.762;38.084;2023-03-07T07:31:45;98334.81;;;-2.07;88.17
53011;BME280;42803;55.762;38.084;2023-03-07T07:34:17;98333.47;;;-1.88;85.46
53011;BME280;42803;55.762;38.084;2023-03-07T07:36:47;98338.19;;;-1.59;85.31
53011;BME280;42803;55.762;38.084;2023-03-07T07:39:16;98346.91;;;-1.57;85.61
53011;BME280;42803;55.762;38.084;2023-03-07T07:41:48;98345.44;;;-1.55;88.89
53011;BME280;42803;55.762;38.084;2023-03-07T07:44:20;98341.97;;;-1.56;88.92
53011;BME280;42803;55.762;38.084;2023-03-07T07:46:55;98348.81;;;-1.39;84.77
53011;BME280;42803;55.762;38.084;2023-03-07T07:49:24;98346.16;;;-1.32;85.44
53011;BME280;42803;55.762;38.084;2023-03-07T07:51:54;98348.75;;;-1.23;87.61
53011;BME280;42803;55.762;38.084;2023-03-07T07:54:23;98339.59;;;-1.21;84.13
53011;BME280;42803;55.762;38.084;2023-03-07T07:56:54;98342.56;;;-0.92;85.79
53011;BME280;42803;55.762;38.084;2023-03-07T07:59:25;98334.78;;;-0.76;86.02
53011;BME280;42803;55.762;38.084;2023-03-07T08:01:54;98328.34;;;-0.55;81.31
53011;BME280;42803;55.762;38.084;2023-03-07T08:04:25;98329.25;;;-0.46;84.59
53011;BME280;42803;55.762;38.084;2023-03-07T08:06:54;98322.50;;;-0.37;80.29
53011;BME280;42803;55.762;38.084;2023-03-07T08:09:23;98329.69;;;-0.50;79.59
53011;BME280;42803;55.762;38.084;2023-03-07T08:11:52;98325.34;;;-0.42;79.47
53011;BME280;42803;55.762;38.084;2023-03-07T08:14:22;98327.75;;;-0.53;80.63
53011;BME280;42803;55.762;38.084;2023-03-07T08:16:51;98338.81;;;-0.87;82.76
53011;BME280;42803;55.762;38.084;2023-03-07T08:19:20;98340.44;;;-0.96;81.26
53011;BME280;42803;55.762;38.084;2023-03-07T08:21:49;98335.81;;;-0.83;80.75
53011;BME280;42803;55.762;38.084;2023-03-07T08:24:18;98339.47;;;-0.72;80.29
53011;BME280;42803;55.762;38.084;2023-03-07T08:27:01;98338.69;;;-0.80;80.63
53011;BME280;42803;55.762;38.084;2023-03-07T08:29:31;98338.63;;;-0.97;80.60
53011;BME280;42803;55.762;38.084;2023-03-07T08:32:01;98335.06;;;-1.15;80.84
53011;BME280;42803;55.762;38.084;2023-03-07T08:34:31;98342.94;;;-1.38;81.42
53011;BME280;42803;55.762;38.084;2023-03-07T08:37:00;98340.50;;;-1.20;84.49
53011;BME280;42803;55.762;38.084;2023-03-07T08:39:30;98336.38;;;-0.94;84.46
53011;BME280;42803;55.762;38.084;2023-03-07T08:41:59;98323.69;;;-1.01;81.76
53011;BME280;42803;55.762;38.084;2023-03-07T08:44:29;98334.16;;;-0.82;80.82
53011;BME280;42803;55.762;38.084;2023-03-07T08:46:59;98331.78;;;-1.14;82.61
53011;BME280;42803;55.762;38.084;2023-03-07T08:49:28;98328.34;;;-1.14;81.65
53011;BME280;42803;55.762;38.084;2023-03-07T08:51:57;98332.66;;;-1.22;81.61
53011;BME280;42803;55.762;38.084;2023-03-07T08:54:27;98332.94;;;-1.28;82.19
53011;BME280;42803;55.762;38.084;2023-03-07T08:56:56;98325.34;;;-1.10;81.56
53011;BME280;42803;55.762;38.084;2023-03-07T08:59:25;98329.03;;;-0.91;82.64
53011;BME280;42803;55.762;38.084;2023-03-07T09:01:55;98331.28;;;-0.85;83.24
53011;BME280;42803;55.762;38.084;2023-03-07T09:04:26;98323.91;;;-0.82;80.58
53011;BME280;42803;55.762;38.084;2023-03-07T09:06:55;98326.47;;;-0.91;82.57
53011;BME280;42803;55.762;38.084;2023-03-07T09:09:27;98326.66;;;-0.72;82.26
53011;BME280;42803;55.762;38.084;2023-03-07T09:11:57;98329.69;;;-0.67;79.85
53011;BME280;42803;55.762;38.084;2023-03-07T09:14:26;98322.00;;;-0.67;78.57
53011;BME280;42803;55.762;38.084;2023-03-07T09:16:55;98319.63;;;-0.57;77.93
53011;BME280;42803;55.762;38.084;2023-03-07T09:19:25;98328.97;;;-0.40;77.14
53011;BME280;42803;55.762;38.084;2023-03-07T09:21:54;98331.94;;;-0.70;78.90
53011;BME280;42803;55.762;38.084;2023-03-07T09:24:23;98324.75;;;-0.57;84.08
53011;BME280;42803;55.762;38.084;2023-03-07T09:26:52;98314.50;;;-0.48;85.16
53011;BME280;42803;55.762;38.084;2023-03-07T09:29:21;98319.00;;;-0.55;80.65
53011;BME280;42803;55.762;38.084;2023-03-07T09:31:51;98326.28;;;-0.42;80.75
53011;BME280;42803;55.762;38.084;2023-03-07T09:34:20;98321.75;;;-0.36;80.68
53011;BME280;42803;55.762;38.084;2023-03-07T09:36:51;98319.94;;;-0.28;77.29
53011;BME280;42803;55.762;38.084;2023-03-07T09:39:20;98313.28;;;-0.35;77.66
53011;BME280;42803;55.762;38.084;2023-03-07T09:41:54;98314.69;;;-0.30;79.35
53011;BME280;42803;55.762;38.084;2023-03-07T09:44:43;98317.09;;;-0.22;80.09
53011;BME280;42803;55.762;38.084;2023-03-07T09:48:03;98314.38;;;-0.33;80.62
53011;BME280;42803;55.762;38.084;2023-03-07T09:50:44;98311.22;;;-0.21;82.64
53011;BME280;42803;55.762;38.084;2023-03-07T09:53:21;98321.16;;;-0.25;82.42
53011;BME280;42803;55.762;38.084;2023-03-07T09:56:02;98312.25;;;-0.02;80.52
53011;BME280;42803;55.762;38.084;2023-03-07T09:58:35;98315.41;;;0.21;76.97
53011;BME280;42803;55.762;38.084;2023-03-07T10:01:06;98309.63;;;0.41;78.25
53011;BME280;42803;55.762;38.084;2023-03-07T10:03:43;98309.03;;;0.44;75.29
53011;BME280;42803;55.762;38.084;2023-03-07T10:06:19;98309.34;;;0.38;80.59
53011;BME280;42803;55.762;38.084;2023-03-07T10:08:54;98299.22;;;0.40;81.68
53011;BME280;42803;55.762;38.084;2023-03-07T10:11:28;98299.06;;;0.47;78.87
53011;BME280;42803;55.762;38.084;2023-03-07T10:14:14;98294.78;;;0.56;76.68
53011;BME280;42803;55.762;38.084;2023-03-07T10:16:49;98295.13;;;0.51;79.86
53011;BME280;42803;55.762;38.084;2023-03-07T10:19:25;98295.44;;;0.45;80.27
53011;BME280;42803;55.762;38.084;2023-03-07T10:22:02;98303.88;;;0.53;78.83
53011;BME280;42803;55.762;38.084;2023-03-07T10:24:44;98297.06;;;0.53;75.75
53011;BME280;42803;55.762;38.084;2023-03-07T10:27:18;98293.59;;;0.53;79.59
53011;BME280;42803;55.762;38.084;2023-03-07T10:29:52;98293.50;;;0.34;78.63
53011;BME280;42803;55.762;38.084;2023-03-07T10:32:30;98289.13;;;0.33;77.25
53011;BME280;42803;55.762;38.084;2023-03-07T10:35:13;98284.84;;;0.42;73.95
53011;BME280;42803;55.762;38.084;2023-03-07T10:37:46;98276.94;;;0.66;73.92
53011;BME280;42803;55.762;38.084;2023-03-07T10:40:25;98281.09;;;0.83;77.41
53011;BME280;42803;55.762;38.084;2023-03-07T10:42:57;98277.16;;;0.87;74.44
53011;BME280;42803;55.762;38.084;2023-03-07T10:45:29;98270.56;;;0.80;72.76
53011;BME280;42803;55.762;38.084;2023-03-07T10:48:03;98260.78;;;0.95;73.88
53011;BME280;42803;55.762;38.084;2023-03-07T10:50:37;98270.28;;;0.77;70.57
53011;BME280;42803;55.762;38.084;2023-03-07T10:53:21;98268.06;;;0.90;68.88
53011;BME280;42803;55.762;38.084;2023-03-07T10:56:08;98268.28;;;1.11;71.49
53011;BME280;42803;55.762;38.084;2023-03-07T10:58:37;98267.19;;;0.90;74.69
53011;BME280;42803;55.762;38.084;2023-03-07T11:01:15;98261.44;;;0.84;74.63
53011;BME280;42803;55.762;38.084;2023-03-07T11:03:48;98263.28;;;0.85;74.11
53011;BME280;42803;55.762;38.084;2023-03-07T11:06:39;98263.38;;;0.95;74.21
53011;BME280;42803;55.762;38.084;2023-03-07T11:09:17;98267.66;;;1.13;75.43
53011;BME280;42803;55.762;38.084;2023-03-07T11:11:50;98266.81;;;1.04;73.19
53011;BME280;42803;55.762;38.084;2023-03-07T11:14:19;98257.72;;;1.08;75.45
53011;BME280;42803;55.762;38.084;2023-03-07T11:16:51;98258.34;;;1.05;70.74
53011;BME280;42803;55.762;38.084;2023-03-07T11:19:34;98258.75;;;0.82;69.16
53011;BME280;42803;55.762;38.084;2023-03-07T11:22:16;98260.72;;;0.76;71.82
53011;BME280;42803;55.762;38.084;2023-03-07T11:24:50;98252.06;;;0.93;72.41
53011;BME280;42803;55.762;38.084;2023-03-07T11:27:23;98254.38;;;1.09;74.19
53011;BME280;42803;55.762;38.084;2023-03-07T11:30:23;98251.94;;;1.10;69.99
53011;BME280;42803;55.762;38.084;2023-03-07T11:32:57;98255.06;;;0.97;68.50
53011;BME280;42803;55.762;38.084;2023-03-07T11:35:43;98261.84;;;1.25;69.75
53011;BME280;42803;55.762;38.084;2023-03-07T11:38:22;98252.88;;;1.11;68.09
53011;BME280;42803;55.762;38.084;2023-03-07T11:40:59;98248.13;;;0.96;69.04
53011;BME280;42803;55.762;38.084;2023-03-07T11:43:41;98248.81;;;0.77;70.47
53011;BME280;42803;55.762;38.084;2023-03-07T11:46:20;98252.78;;;0.64;73.19
53011;BME280;42803;55.762;38.084;2023-03-07T11:49:01;98249.06;;;0.52;74.35
53011;BME280;42803;55.762;38.084;2023-03-07T11:51:41;98251.41;;;0.32;73.59
53011;BME280;42803;55.762;38.084;2023-03-07T11:54:20;98256.22;;;0.29;69.53
53011;BME280;42803;55.762;38.084;2023-03-07T11:56:54;98252.25;;;0.41;68.62
53011;BME280;42803;55.762;38.084;2023-03-07T11:59:47;98246.34;;;0.51;71.30
53011;BME280;42803;55.762;38.084;2023-03-07T12:02:39;98248.41;;;0.63;72.47
53011;BME280;42803;55.762;38.084;2023-03-07T12:05:22;98240.66;;;0.81;73.92
53011;BME280;42803;55.762;38.084;2023-03-07T12:08:13;98235.75;;;0.84;72.12
53011;BME280;42803;55.762;38.084;2023-03-07T12:10:54;98240.06;;;0.75;70.33
53011;BME280;42803;55.762;38.084;2023-03-07T12:13:35;98236.16;;;0.69;71.06
53011;BME280;42803;55.762;38.084;2023-03-07T12:16:17;98241.91;;;0.67;67.82
53011;BME280;42803;55.762;38.084;2023-03-07T12:22:19;98242.63;;;0.75;70.53
53011;BME280;42803;55.762;38.084;2023-03-07T12:25:03;98241.72;;;0.74;67.15
53011;BME280;42803;55.762;38.084;2023-03-07T12:27:39;98241.00;;;0.66;67.82
53011;BME280;42803;55.762;38.084;2023-03-07T12:30:14;98233.44;;;0.68;65.36
53011;BME280;42803;55.762;38.084;2023-03-07T12:32:48;98233.13;;;0.65;71.77
53011;BME280;42803;55.762;38.084;2023-03-07T12:35:22;98227.41;;;0.67;71.16
53011;BME280;42803;55.762;38.084;2023-03-07T12:37:57;98229.06;;;0.67;68.38
53011;BME280;42803;55.762;38.084;2023-03-07T12:40:34;98224.34;;;0.71;68.60
53011;BME280;42803;55.762;38.084;2023-03-07T12:43:12;98221.97;;;0.64;71.58
53011;BME280;42803;55.762;38.084;2023-03-07T12:45:46;98228.03;;;0.56;74.49
53011;BME280;42803;55.762;38.084;2023-03-07T12:48:21;98228.97;;;0.48;71.92
53011;BME280;42803;55.762;38.084;2023-03-07T12:50:58;98217.25;;;0.33;67.34
53011;BME280;42803;55.762;38.084;2023-03-07T12:53:34;98232.81;;;0.26;69.88
53011;BME280;42803;55.762;38.084;2023-03-07T12:56:09;98228.13;;;0.30;71.68
53011;BME280;42803;55.762;38.084;2023-03-07T12:58:45;98223.97;;;0.13;68.86
53011;BME280;42803;55.762;38.084;2023-03-07T13:01:17;98226.09;;;0.09;67.92
53011;BME280;42803;55.762;38.084;2023-03-07T13:03:54;98225.03;;;0.07;65.28
53011;BME280;42803;55.762;38.084;2023-03-07T13:06:25;98218.88;;;0.05;64.88
53011;BME280;42803;55.762;38.084;2023-03-07T13:08:57;98216.44;;;0.06;64.79
53011;BME280;42803;55.762;38.084;2023-03-07T13:11:33;98220.06;;;-0.01;66.09
53011;BME280;42803;55.762;38.084;2023-03-07T13:14:05;98214.66;;;-0.12;66.93
53011;BME280;42803;55.762;38.084;2023-03-07T13:16:47;98222.03;;;-0.07;65.90
53011;BME280;42803;55.762;38.084;2023-03-07T13:20:03;98217.69;;;-0.25;67.60